createdAt,value
2023-02-26T00:00:02.465Z,0
2023-02-26T00:05:03.251Z,0
2023-02-26T00:10:02.945Z,0
2023-02-26T00:15:02.574Z,0
2023-02-26T00:20:03.313Z,0
2023-02-26T00:25:02.616Z,0
2023-02-26T00:30:02.551Z,0
2023-02-26T00:35:02.548Z,0
2023-02-26T00:40:03.254Z,0
2023-02-26T00:45:03.176Z,0
2023-02-26T00:50:02.850Z,0
2023-02-26T00:55:03.312Z,0
2023-02-26T01:00:03.370Z,0
2023-02-26T01:05:03.189Z,0
2023-02-26T01:10:02.865Z,0
2023-02-26T01:15:02.664Z,0
2023-02-26T01:20:02.345Z,0
2023-02-26T01:25:03.312Z,0
2023-02-26T01:30:03.058Z,0
2023-02-26T01:35:02.793Z,0
2023-02-26T01:40:02.809Z,0
2023-02-26T01:45:02.958Z,0
2023-02-26T01:50:02.608Z,0
2023-02-26T01:55:03.714Z,0
2023-02-26T02:00:03.095Z,0
2023-02-26T02:05:02.781Z,0
2023-02-26T02:10:02.568Z,0
2023-02-26T02:15:02.834Z,0
2023-02-26T02:20:02.920Z,0
2023-02-26T02:25:02.764Z,0
2023-02-26T02:30:02.621Z,0
2023-02-26T02:35:03.299Z,0
2023-02-26T02:40:03.036Z,0
2023-02-26T02:45:02.825Z,0
2023-02-26T02:50:02.598Z,0
2023-02-26T02:55:03.628Z,0
2023-02-26T03:00:03.260Z,0
2023-02-26T03:05:02.803Z,0
2023-02-26T03:10:02.957Z,0
2023-02-26T03:15:02.687Z,0
2023-02-26T03:20:02.562Z,0
2023-02-26T03:25:02.534Z,0
2023-02-26T03:30:03.352Z,0
2023-02-26T03:35:03.068Z,0
2023-02-26T03:40:03.046Z,0
2023-02-26T03:45:03.012Z,0
2023-02-26T03:50:02.968Z,0
2023-02-26T03:55:03.332Z,0
2023-02-26T04:00:02.521Z,0
2023-02-26T04:05:02.651Z,0
2023-02-26T04:10:02.419Z,0
2023-02-26T04:15:03.401Z,0
2023-02-26T04:20:03.177Z,0
2023-02-26T04:25:02.905Z,0
2023-02-26T04:30:02.800Z,0
2023-02-26T04:35:02.783Z,0
2023-02-26T04:40:03.378Z,0
2023-02-26T04:45:03.243Z,0
2023-02-26T04:50:03.050Z,0
2023-02-26T04:55:03.095Z,0
2023-02-26T05:00:02.580Z,0
2023-02-26T05:05:03.248Z,0
2023-02-26T05:10:03.050Z,0
2023-02-26T05:15:03.021Z,0
2023-02-26T05:20:02.710Z,0
2023-02-26T05:25:02.456Z,0.11
2023-02-26T05:30:03.266Z,0.45
2023-02-26T05:35:02.884Z,1.36
2023-02-26T05:40:02.596Z,3.51
2023-02-26T05:45:03.368Z,8.26
2023-02-26T05:50:02.999Z,6.67
2023-02-26T05:55:03.162Z,13.33
2023-02-26T06:00:02.609Z,25
2023-02-26T06:05:03.323Z,41.67
2023-02-26T06:10:03.074Z,70
2023-02-26T06:15:02.831Z,106.67
2023-02-26T06:20:02.544Z,136.67
2023-02-26T06:25:02.718Z,186.67
2023-02-26T06:30:02.606Z,256.67
2023-02-26T06:35:02.529Z,321.67
2023-02-26T06:40:03.255Z,398.33
2023-02-26T06:45:02.988Z,591.67
2023-02-26T06:50:02.877Z,690
2023-02-26T06:55:03.440Z,963.33
2023-02-26T07:00:03.038Z,1138.33
2023-02-26T07:05:02.816Z,1233.33
2023-02-26T07:10:02.786Z,1448.33
2023-02-26T07:15:03.014Z,1460
2023-02-26T07:20:02.537Z,1685
2023-02-26T07:25:03.231Z,1975
2023-02-26T07:30:02.974Z,2238.33
2023-02-26T07:35:02.582Z,2491.67
2023-02-26T07:40:02.374Z,2895
2023-02-26T07:45:03.165Z,2686.67
2023-02-26T07:50:02.934Z,3116.67
2023-02-26T07:55:03.433Z,3616.67
2023-02-26T08:00:02.618Z,3986.67
2023-02-26T08:05:03.375Z,4143.33
2023-02-26T08:10:08.215Z,4115
2023-02-26T08:15:02.932Z,4750
2023-02-26T08:20:03.003Z,5270
2023-02-26T08:25:02.718Z,5975
2023-02-26T08:30:02.835Z,5555
2023-02-26T08:35:03.318Z,5838.33
2023-02-26T08:40:03.156Z,6661.67
2023-02-26T08:45:02.912Z,7646.67
2023-02-26T08:50:03.042Z,7843.33
2023-02-26T08:55:03.516Z,9890
2023-02-26T09:00:02.637Z,7016.67
2023-02-26T09:05:02.477Z,27466.67
2023-02-26T09:10:03.230Z,8745
2023-02-26T09:15:03.089Z,10001.67
2023-02-26T09:20:02.638Z,6923.33
2023-02-26T09:25:02.568Z,5085
2023-02-26T09:30:03.232Z,6316.67
2023-02-26T09:35:02.851Z,4306.67
2023-02-26T09:40:03.155Z,6523.33
2023-02-26T09:45:03.059Z,5755
2023-02-26T09:50:02.471Z,13195
2023-02-26T09:55:03.273Z,34313.33
2023-02-26T10:00:03.361Z,35556.67
2023-02-26T10:05:03.003Z,39610
2023-02-26T10:10:02.910Z,32630
2023-02-26T10:15:02.623Z,33790
2023-02-26T10:20:02.949Z,5578.33
2023-02-26T10:25:02.983Z,7916.67
2023-02-26T10:30:02.780Z,7203.33
2023-02-26T10:35:02.392Z,6678.33
2023-02-26T10:40:03.199Z,10266.67
2023-02-26T10:45:02.941Z,11401.67
2023-02-26T10:50:02.645Z,6850
2023-02-26T10:55:02.799Z,6073.33
2023-02-26T11:00:03.020Z,8420
2023-02-26T11:05:08.303Z,8638.33
2023-02-26T11:10:03.087Z,7011.67
2023-02-26T11:15:02.874Z,9886.67
2023-02-26T11:20:02.529Z,8411.67
2023-02-26T11:25:02.423Z,4760
2023-02-26T11:30:03.117Z,4590
2023-02-26T11:35:03.176Z,39666.67
2023-02-26T11:40:02.753Z,39446.67
2023-02-26T11:45:03.423Z,3251.67
2023-02-26T11:50:03.000Z,4855
2023-02-26T11:55:03.530Z,43110
2023-02-26T12:00:03.738Z,8671.67
2023-02-26T12:05:03.331Z,3996.67
2023-02-26T12:10:03.245Z,6155
2023-02-26T12:15:03.277Z,44750
2023-02-26T12:20:02.916Z,11100
2023-02-26T12:25:02.635Z,4593.33
2023-02-26T12:30:02.613Z,5125
2023-02-26T12:35:03.226Z,4301.67
2023-02-26T12:40:02.909Z,6711.67
2023-02-26T12:45:02.913Z,5120
2023-02-26T12:50:02.970Z,3526.67
2023-02-26T12:55:03.485Z,2706.67
2023-02-26T13:00:02.547Z,3045
2023-02-26T13:05:03.273Z,3646.67
2023-02-26T13:10:03.077Z,3928.33
2023-02-26T13:15:02.812Z,4301.67
2023-02-26T13:20:02.886Z,4991.67
2023-02-26T13:25:02.757Z,4543.33
2023-02-26T13:30:02.551Z,3700
2023-02-26T13:35:02.659Z,3043.33
2023-02-26T13:40:02.436Z,2676.67
2023-02-26T13:45:02.677Z,3223.33
2023-02-26T13:50:02.401Z,3950
2023-02-26T13:55:03.394Z,3943.33
2023-02-26T14:00:03.140Z,3601.67
2023-02-26T14:05:02.865Z,3923.33
2023-02-26T14:10:02.597Z,5276.67
2023-02-26T14:15:03.255Z,7985
2023-02-26T14:20:03.010Z,5620
2023-02-26T14:25:02.851Z,4858.33
2023-02-26T14:30:02.950Z,4705
2023-02-26T14:35:02.855Z,4306.67
2023-02-26T14:40:02.549Z,4430
2023-02-26T14:45:03.329Z,4806.67
2023-02-26T14:50:02.441Z,4741.67
2023-02-26T14:55:03.491Z,4403.33
2023-02-26T15:00:03.417Z,3381.67
2023-02-26T15:05:02.883Z,2743.33
2023-02-26T15:10:02.791Z,2216.67
2023-02-26T15:15:02.557Z,1498.33
2023-02-26T15:20:03.205Z,1323.33
2023-02-26T15:25:02.901Z,1606.67
2023-02-26T15:30:02.892Z,1560
2023-02-26T15:35:02.576Z,1191.67
2023-02-26T15:40:03.118Z,1161.67
2023-02-26T15:45:03.161Z,1453.33
2023-02-26T15:50:02.589Z,2013.33
2023-02-26T15:55:03.747Z,1876.67
2023-02-26T16:00:03.179Z,1325
2023-02-26T16:05:02.485Z,996.67
2023-02-26T16:10:02.525Z,906.67
2023-02-26T16:15:03.311Z,751.67
2023-02-26T16:20:03.024Z,571.67
2023-02-26T16:25:02.742Z,491.67
2023-02-26T16:30:02.605Z,410
2023-02-26T16:35:03.297Z,328.33
2023-02-26T16:40:03.021Z,248.33
2023-02-26T16:45:02.843Z,173.33
2023-02-26T16:50:02.555Z,113.33
2023-02-26T16:55:03.950Z,30
2023-02-26T17:00:03.177Z,13.33
2023-02-26T17:05:02.972Z,11.88
2023-02-26T17:10:02.577Z,4.87
2023-02-26T17:15:03.024Z,1.92
2023-02-26T17:20:02.524Z,0.68
2023-02-26T17:25:02.753Z,0.23
2023-02-26T17:30:02.554Z,0
2023-02-26T17:35:03.229Z,0
2023-02-26T17:40:02.965Z,0
2023-02-26T17:45:02.752Z,0
2023-02-26T17:50:02.642Z,0
2023-02-26T17:55:03.244Z,0
2023-02-26T18:00:02.689Z,0
2023-02-26T18:05:02.509Z,0
2023-02-26T18:10:03.327Z,0
2023-02-26T18:15:03.156Z,0
2023-02-26T18:20:02.838Z,0
2023-02-26T18:25:02.657Z,0
2023-02-26T18:30:03.360Z,0
2023-02-26T18:35:03.387Z,0
2023-02-26T18:40:02.905Z,0
2023-02-26T18:45:03.263Z,0
2023-02-26T18:50:02.563Z,0
2023-02-26T18:55:03.206Z,0
2023-02-26T19:00:03.240Z,0
2023-02-26T19:05:03.154Z,0
2023-02-26T19:10:02.751Z,0
2023-02-26T19:15:02.364Z,0
2023-02-26T19:20:02.758Z,0
2023-02-26T19:25:02.397Z,0
2023-02-26T19:30:03.167Z,0
2023-02-26T19:35:02.806Z,0
2023-02-26T19:40:03.844Z,0
2023-02-26T19:45:02.560Z,0
2023-02-26T19:50:02.482Z,0
2023-02-26T19:55:03.864Z,0
2023-02-26T20:00:03.153Z,0
2023-02-26T20:05:02.784Z,0
2023-02-26T20:10:02.576Z,0
2023-02-26T20:15:03.387Z,0
2023-02-26T20:20:03.206Z,0
2023-02-26T20:25:02.895Z,0
2023-02-26T20:30:02.696Z,0
2023-02-26T20:35:02.455Z,0
2023-02-26T20:40:03.225Z,0
2023-02-26T20:45:03.134Z,0
2023-02-26T20:50:02.805Z,0
2023-02-26T20:55:02.908Z,0
2023-02-26T21:00:02.539Z,0
2023-02-26T21:05:03.325Z,0
2023-02-26T21:10:03.036Z,0
2023-02-26T21:15:03.072Z,0
2023-02-26T21:20:02.650Z,0
2023-02-26T21:25:02.791Z,0
2023-02-26T21:30:02.392Z,0
2023-02-26T21:35:03.144Z,0
2023-02-26T21:40:02.927Z,0
2023-02-26T21:45:02.617Z,0
2023-02-26T21:50:02.754Z,0
2023-02-26T21:55:02.695Z,0
2023-02-26T22:00:03.281Z,0
2023-02-26T22:05:03.111Z,0
2023-02-26T22:10:02.850Z,0
2023-02-26T22:15:02.653Z,0
2023-02-26T22:20:02.388Z,0
2023-02-26T22:25:02.950Z,0
2023-02-26T22:30:02.740Z,0
2023-02-26T22:35:02.405Z,0
2023-02-26T22:40:02.582Z,0
2023-02-26T22:45:03.146Z,0
2023-02-26T22:50:03.019Z,0
2023-02-26T22:55:03.544Z,0
2023-02-26T23:00:02.684Z,0
2023-02-26T23:05:02.550Z,0
2023-02-26T23:10:03.364Z,0
2023-02-26T23:15:03.129Z,0
2023-02-26T23:20:03.012Z,0
2023-02-26T23:25:02.862Z,0
2023-02-26T23:30:02.679Z,0
2023-02-26T23:35:03.331Z,0
2023-02-26T23:40:03.230Z,0
2023-02-26T23:45:02.885Z,0
2023-02-26T23:50:02.471Z,0
2023-02-26T23:55:03.597Z,0
